sensor_id;sensor_type;location;lat;lon;timestamp;temperature;humidity
14769;DHT22;7476;49.404;11.152;2024-01-25T00:01:22;8.10;1.00
14769;DHT22;7476;49.404;11.152;2024-01-25T00:03:49;8.10;1.00
14769;DHT22;7476;49.404;11.152;2024-01-25T00:06:16;8.10;1.00
14769;DHT22;7476;49.404;11.152;2024-01-25T00:08:43;8.10;1.00
14769;DHT22;7476;49.404;11.152;2024-01-25T00:11:10;8.10;1.00
14769;DHT22;7476;49.404;11.152;2024-01-25T00:13:36;8.10;1.00
14769;DHT22;7476;49.404;11.152;2024-01-25T00:16:04;8.20;1.00
14769;DHT22;7476;49.404;11.152;2024-01-25T00:18:31;8.20;1.00
14769;DHT22;7476;49.404;11.152;2024-01-25T00:20:58;8.20;1.00
14769;DHT22;7476;49.404;11.152;2024-01-25T00:23:26;8.10;1.00
14769;DHT22;7476;49.404;11.152;2024-01-25T00:25:52;8.10;99.90
14769;DHT22;7476;49.404;11.152;2024-01-25T00:28:23;8.10;99.90
14769;DHT22;7476;49.404;11.152;2024-01-25T00:30:50;8.10;99.90
14769;DHT22;7476;49.404;11.152;2024-01-25T00:33:16;8.10;99.90
14769;DHT22;7476;49.404;11.152;2024-01-25T00:35:43;8.10;99.90
14769;DHT22;7476;49.404;11.152;2024-01-25T00:38:11;8.10;99.90
14769;DHT22;7476;49.404;11.152;2024-01-25T00:40:39;8.10;99.90
14769;DHT22;7476;49.404;11.152;2024-01-25T00:43:07;8.10;99.90
14769;DHT22;7476;49.404;11.152;2024-01-25T00:45:34;8.00;99.90
14769;DHT22;7476;49.404;11.152;2024-01-25T00:48:01;8.00;99.90
14769;DHT22;7476;49.404;11.152;2024-01-25T00:50:28;7.90;99.90
14769;DHT22;7476;49.404;11.152;2024-01-25T00:52:56;8.00;99.90
14769;DHT22;7476;49.404;11.152;2024-01-25T00:55:23;7.90;99.90
14769;DHT22;7476;49.404;11.152;2024-01-25T00:57:52;7.90;99.90
14769;DHT22;7476;49.404;11.152;2024-01-25T01:00:21;7.90;99.90
14769;DHT22;7476;49.404;11.152;2024-01-25T01:02:48;7.90;99.90
14769;DHT22;7476;49.404;11.152;2024-01-25T01:05:15;7.90;99.90
14769;DHT22;7476;49.404;11.152;2024-01-25T01:07:42;7.90;99.90
14769;DHT22;7476;49.404;11.152;2024-01-25T01:10:10;7.90;99.90
14769;DHT22;7476;49.404;11.152;2024-01-25T01:12:37;7.90;99.90
14769;DHT22;7476;49.404;11.152;2024-01-25T01:15:06;7.80;99.90
14769;DHT22;7476;49.404;11.152;2024-01-25T01:17:33;7.80;99.90
14769;DHT22;7476;49.404;11.152;2024-01-25T01:20:00;7.70;99.90
14769;DHT22;7476;49.404;11.152;2024-01-25T01:22:26;7.70;1.00
14769;DHT22;7476;49.404;11.152;2024-01-25T01:24:53;7.70;1.00
14769;DHT22;7476;49.404;11.152;2024-01-25T01:27:21;7.70;1.00
14769;DHT22;7476;49.404;11.152;2024-01-25T01:29:48;7.70;1.00
14769;DHT22;7476;49.404;11.152;2024-01-25T01:32:16;7.70;1.00
14769;DHT22;7476;49.404;11.152;2024-01-25T01:34:42;7.80;99.90
14769;DHT22;7476;49.404;11.152;2024-01-25T01:37:09;7.80;99.90
14769;DHT22;7476;49.404;11.152;2024-01-25T01:39:36;7.90;99.90
14769;DHT22;7476;49.404;11.152;2024-01-25T01:42:03;7.90;99.90
14769;DHT22;7476;49.404;11.152;2024-01-25T01:44:29;7.80;99.90
14769;DHT22;7476;49.404;11.152;2024-01-25T01:46:56;7.90;99.90
14769;DHT22;7476;49.404;11.152;2024-01-25T01:49:25;7.80;99.90
14769;DHT22;7476;49.404;11.152;2024-01-25T01:51:52;7.80;99.90
14769;DHT22;7476;49.404;11.152;2024-01-25T01:54:19;7.80;99.90
14769;DHT22;7476;49.404;11.152;2024-01-25T01:56:46;7.80;99.90
14769;DHT22;7476;49.404;11.152;2024-01-25T01:59:13;7.80;23.90
14769;DHT22;7476;49.404;11.152;2024-01-25T02:01:39;7.80;72.60
14769;DHT22;7476;49.404;11.152;2024-01-25T02:04:06;7.80;22.10
14769;DHT22;7476;49.404;11.152;2024-01-25T02:06:34;7.80;1.00
14769;DHT22;7476;49.404;11.152;2024-01-25T02:09:01;7.80;1.00
14769;DHT22;7476;49.404;11.152;2024-01-25T02:11:28;7.90;1.00
14769;DHT22;7476;49.404;11.152;2024-01-25T02:13:55;7.90;1.00
14769;DHT22;7476;49.404;11.152;2024-01-25T02:16:22;7.90;1.00
14769;DHT22;7476;49.404;11.152;2024-01-25T02:18:49;7.90;1.00
14769;DHT22;7476;49.404;11.152;2024-01-25T02:21:15;7.90;1.00
14769;DHT22;7476;49.404;11.152;2024-01-25T02:23:43;7.90;1.00
14769;DHT22;7476;49.404;11.152;2024-01-25T02:26:10;7.80;1.00
14769;DHT22;7476;49.404;11.152;2024-01-25T02:28:36;7.70;1.00
14769;DHT22;7476;49.404;11.152;2024-01-25T02:31:03;7.60;99.90
14769;DHT22;7476;49.404;11.152;2024-01-25T02:33:30;7.50;1.00
14769;DHT22;7476;49.404;11.152;2024-01-25T02:35:57;7.40;1.00
14769;DHT22;7476;49.404;11.152;2024-01-25T02:38:23;7.50;1.00
14769;DHT22;7476;49.404;11.152;2024-01-25T02:40:51;7.50;1.00
14769;DHT22;7476;49.404;11.152;2024-01-25T02:43:19;7.60;99.90
14769;DHT22;7476;49.404;11.152;2024-01-25T02:45:46;7.60;99.90
14769;DHT22;7476;49.404;11.152;2024-01-25T02:48:13;7.70;99.90
14769;DHT22;7476;49.404;11.152;2024-01-25T02:50:40;7.70;1.00
14769;DHT22;7476;49.404;11.152;2024-01-25T02:53:07;7.80;1.00
14769;DHT22;7476;49.404;11.152;2024-01-25T02:55:34;7.80;1.00
14769;DHT22;7476;49.404;11.152;2024-01-25T02:58:02;7.90;1.00
14769;DHT22;7476;49.404;11.152;2024-01-25T03:00:28;7.90;99.90
14769;DHT22;7476;49.404;11.152;2024-01-25T03:02:55;7.80;99.90
14769;DHT22;7476;49.404;11.152;2024-01-25T03:05:22;7.80;99.90
14769;DHT22;7476;49.404;11.152;2024-01-25T03:07:48;7.80;1.00
14769;DHT22;7476;49.404;11.152;2024-01-25T03:10:15;7.90;99.90
14769;DHT22;7476;49.404;11.152;2024-01-25T03:12:42;7.90;99.90
14769;DHT22;7476;49.404;11.152;2024-01-25T03:15:11;7.90;8.30
14769;DHT22;7476;49.404;11.152;2024-01-25T03:17:38;7.90;1.00
14769;DHT22;7476;49.404;11.152;2024-01-25T03:20:05;7.80;1.00
14769;DHT22;7476;49.404;11.152;2024-01-25T03:22:32;7.80;1.00
14769;DHT22;7476;49.404;11.152;2024-01-25T03:24:59;7.80;99.90
14769;DHT22;7476;49.404;11.152;2024-01-25T03:27:25;7.80;99.90
14769;DHT22;7476;49.404;11.152;2024-01-25T03:29:52;7.90;1.00
14769;DHT22;7476;49.404;11.152;2024-01-25T03:32:20;7.80;1.00
14769;DHT22;7476;49.404;11.152;2024-01-25T03:34:47;7.80;1.00
14769;DHT22;7476;49.404;11.152;2024-01-25T03:37:13;7.80;1.00
14769;DHT22;7476;49.404;11.152;2024-01-25T03:39:40;7.80;1.00
14769;DHT22;7476;49.404;11.152;2024-01-25T03:42:07;7.80;1.00
14769;DHT22;7476;49.404;11.152;2024-01-25T03:44:34;7.80;1.00
14769;DHT22;7476;49.404;11.152;2024-01-25T03:47:00;7.80;1.00
14769;DHT22;7476;49.404;11.152;2024-01-25T03:49:28;7.80;1.00
14769;DHT22;7476;49.404;11.152;2024-01-25T03:51:55;7.80;1.00
14769;DHT22;7476;49.404;11.152;2024-01-25T03:54:22;7.80;1.00
14769;DHT22;7476;49.404;11.152;2024-01-25T03:56:48;7.70;99.90
14769;DHT22;7476;49.404;11.152;2024-01-25T03:59:15;7.70;99.90
14769;DHT22;7476;49.404;11.152;2024-01-25T04:01:43;7.60;1.00
14769;DHT22;7476;49.404;11.152;2024-01-25T04:04:10;7.70;1.00
14769;DHT22;7476;49.404;11.152;2024-01-25T04:06:40;7.70;1.00
14769;DHT22;7476;49.404;11.152;2024-01-25T04:09:07;7.60;1.00
14769;DHT22;7476;49.404;11.152;2024-01-25T04:11:34;7.70;1.00
14769;DHT22;7476;49.404;11.152;2024-01-25T04:14:00;7.70;1.00
14769;DHT22;7476;49.404;11.152;2024-01-25T04:16:27;7.70;1.00
14769;DHT22;7476;49.404;11.152;2024-01-25T04:18:54;7.60;1.00
14769;DHT22;7476;49.404;11.152;2024-01-25T04:21:20;7.60;1.00
14769;DHT22;7476;49.404;11.152;2024-01-25T04:23:48;7.70;1.00
14769;DHT22;7476;49.404;11.152;2024-01-25T04:26:15;7.60;99.90
14769;DHT22;7476;49.404;11.152;2024-01-25T04:28:42;7.70;99.90
14769;DHT22;7476;49.404;11.152;2024-01-25T04:31:09;7.70;99.90
14769;DHT22;7476;49.404;11.152;2024-01-25T04:33:35;7.70;1.00
14769;DHT22;7476;49.404;11.152;2024-01-25T04:36:04;7.60;1.00
14769;DHT22;7476;49.404;11.152;2024-01-25T04:38:31;7.60;1.00
14769;DHT22;7476;49.404;11.152;2024-01-25T04:40:59;7.60;99.90
14769;DHT22;7476;49.404;11.152;2024-01-25T04:43:26;7.50;99.90
14769;DHT22;7476;49.404;11.152;2024-01-25T04:45:52;7.50;1.00
14769;DHT22;7476;49.404;11.152;2024-01-25T04:48:19;7.50;1.00
14769;DHT22;7476;49.404;11.152;2024-01-25T04:50:45;7.50;1.00
14769;DHT22;7476;49.404;11.152;2024-01-25T04:53:12;7.60;1.00
14769;DHT22;7476;49.404;11.152;2024-01-25T04:55:39;7.50;1.00
14769;DHT22;7476;49.404;11.152;2024-01-25T04:58:07;7.50;1.00
14769;DHT22;7476;49.404;11.152;2024-01-25T05:00:34;7.50;25.90
14769;DHT22;7476;49.404;11.152;2024-01-25T05:03:02;7.40;99.90
14769;DHT22;7476;49.404;11.152;2024-01-25T05:05:29;7.40;99.90
14769;DHT22;7476;49.404;11.152;2024-01-25T05:07:55;7.30;1.00
14769;DHT22;7476;49.404;11.152;2024-01-25T05:10:22;7.30;1.00
14769;DHT22;7476;49.404;11.152;2024-01-25T05:12:50;7.30;1.00
14769;DHT22;7476;49.404;11.152;2024-01-25T05:15:19;7.30;1.00
14769;DHT22;7476;49.404;11.152;2024-01-25T05:17:45;7.40;1.00
14769;DHT22;7476;49.404;11.152;2024-01-25T05:20:12;7.40;1.00
14769;DHT22;7476;49.404;11.152;2024-01-25T05:22:40;7.40;1.00
14769;DHT22;7476;49.404;11.152;2024-01-25T05:25:08;7.40;1.00
14769;DHT22;7476;49.404;11.152;2024-01-25T05:27:35;7.40;1.00
14769;DHT22;7476;49.404;11.152;2024-01-25T05:30:01;7.30;1.00
14769;DHT22;7476;49.404;11.152;2024-01-25T05:32:31;7.30;1.00
14769;DHT22;7476;49.404;11.152;2024-01-25T05:34:58;7.30;14.20
14769;DHT22;7476;49.404;11.152;2024-01-25T05:37:25;7.20;99.90
14769;DHT22;7476;49.404;11.152;2024-01-25T05:39:52;7.10;99.90
14769;DHT22;7476;49.404;11.152;2024-01-25T05:42:18;7.00;99.90
14769;DHT22;7476;49.404;11.152;2024-01-25T05:44:45;7.00;1.00
14769;DHT22;7476;49.404;11.152;2024-01-25T05:47:12;7.10;1.00
14769;DHT22;7476;49.404;11.152;2024-01-25T05:49:41;7.10;1.00
14769;DHT22;7476;49.404;11.152;2024-01-25T05:52:08;7.10;1.00
14769;DHT22;7476;49.404;11.152;2024-01-25T05:54:34;7.10;1.00
14769;DHT22;7476;49.404;11.152;2024-01-25T05:57:01;7.20;1.00
14769;DHT22;7476;49.404;11.152;2024-01-25T05:59:29;7.20;99.90
14769;DHT22;7476;49.404;11.152;2024-01-25T06:01:56;7.30;99.90
14769;DHT22;7476;49.404;11.152;2024-01-25T06:04:23;7.20;99.90
14769;DHT22;7476;49.404;11.152;2024-01-25T06:06:51;7.20;99.90
14769;DHT22;7476;49.404;11.152;2024-01-25T06:09:17;7.20;99.90
14769;DHT22;7476;49.404;11.152;2024-01-25T06:11:44;7.30;99.90
14769;DHT22;7476;49.404;11.152;2024-01-25T06:14:11;7.30;99.90
14769;DHT22;7476;49.404;11.152;2024-01-25T06:16:38;7.20;99.90
14769;DHT22;7476;49.404;11.152;2024-01-25T06:19:05;7.10;1.00
14769;DHT22;7476;49.404;11.152;2024-01-25T06:21:31;7.00;1.00
14769;DHT22;7476;49.404;11.152;2024-01-25T06:24:02;7.00;1.00
14769;DHT22;7476;49.404;11.152;2024-01-25T06:26:28;7.10;1.00
14769;DHT22;7476;49.404;11.152;2024-01-25T06:28:55;7.10;1.00
14769;DHT22;7476;49.404;11.152;2024-01-25T06:31:22;7.00;1.00
14769;DHT22;7476;49.404;11.152;2024-01-25T06:33:49;7.00;1.00
14769;DHT22;7476;49.404;11.152;2024-01-25T06:36:16;7.00;1.00
14769;DHT22;7476;49.404;11.152;2024-01-25T06:38:42;7.00;1.00
14769;DHT22;7476;49.404;11.152;2024-01-25T06:41:11;7.00;1.00
14769;DHT22;7476;49.404;11.152;2024-01-25T06:43:37;6.90;1.00
14769;DHT22;7476;49.404;11.152;2024-01-25T06:46:05;6.80;1.00
14769;DHT22;7476;49.404;11.152;2024-01-25T06:48:32;6.60;1.00
14769;DHT22;7476;49.404;11.152;2024-01-25T06:50:59;6.50;1.00
14769;DHT22;7476;49.404;11.152;2024-01-25T06:53:26;6.30;1.00
14769;DHT22;7476;49.404;11.152;2024-01-25T06:55:52;6.20;1.00
14769;DHT22;7476;49.404;11.152;2024-01-25T06:58:20;6.10;1.00
14769;DHT22;7476;49.404;11.152;2024-01-25T07:00:47;6.00;1.00
14769;DHT22;7476;49.404;11.152;2024-01-25T07:03:14;5.90;1.00
14769;DHT22;7476;49.404;11.152;2024-01-25T07:05:41;5.80;1.00
14769;DHT22;7476;49.404;11.152;2024-01-25T07:08:08;5.80;1.00
14769;DHT22;7476;49.404;11.152;2024-01-25T07:10:38;5.70;1.00
14769;DHT22;7476;49.404;11.152;2024-01-25T07:13:05;5.80;1.00
14769;DHT22;7476;49.404;11.152;2024-01-25T07:15:33;5.70;1.00
14769;DHT22;7476;49.404;11.152;2024-01-25T07:18:00;5.70;1.00
14769;DHT22;7476;49.404;11.152;2024-01-25T07:20:27;5.70;1.00
14769;DHT22;7476;49.404;11.152;2024-01-25T07:22:53;5.70;1.00
14769;DHT22;7476;49.404;11.152;2024-01-25T07:25:20;5.70;1.00
14769;DHT22;7476;49.404;11.152;2024-01-25T07:27:47;5.70;1.00
14769;DHT22;7476;49.404;11.152;2024-01-25T07:30:14;5.70;1.00
14769;DHT22;7476;49.404;11.152;2024-01-25T07:32:43;5.70;1.00
14769;DHT22;7476;49.404;11.152;2024-01-25T07:35:11;5.80;1.00
14769;DHT22;7476;49.404;11.152;2024-01-25T07:37:39;5.70;1.00
14769;DHT22;7476;49.404;11.152;2024-01-25T07:40:06;5.70;1.00
14769;DHT22;7476;49.404;11.152;2024-01-25T07:42:33;5.80;1.00
14769;DHT22;7476;49.404;11.152;2024-01-25T07:45:00;5.70;1.00
14769;DHT22;7476;49.404;11.152;2024-01-25T07:47:27;5.60;1.00
14769;DHT22;7476;49.404;11.152;2024-01-25T07:49:55;5.60;1.00
14769;DHT22;7476;49.404;11.152;2024-01-25T07:52:21;5.60;4.00
14769;DHT22;7476;49.404;11.152;2024-01-25T07:54:48;5.70;1.00
14769;DHT22;7476;49.404;11.152;2024-01-25T07:57:15;5.80;1.00
14769;DHT22;7476;49.404;11.152;2024-01-25T07:59:41;5.90;1.00
14769;DHT22;7476;49.404;11.152;2024-01-25T08:02:08;6.00;1.00
14769;DHT22;7476;49.404;11.152;2024-01-25T08:04:35;6.10;1.00
14769;DHT22;7476;49.404;11.152;2024-01-25T08:07:03;6.10;1.00
14769;DHT22;7476;49.404;11.152;2024-01-25T08:09:30;6.20;1.00
14769;DHT22;7476;49.404;11.152;2024-01-25T08:11:56;6.30;1.00
14769;DHT22;7476;49.404;11.152;2024-01-25T08:14:23;6.40;1.00
14769;DHT22;7476;49.404;11.152;2024-01-25T08:16:49;6.50;1.00
14769;DHT22;7476;49.404;11.152;2024-01-25T08:19:16;6.60;1.00
14769;DHT22;7476;49.404;11.152;2024-01-25T08:21:43;6.70;1.00
14769;DHT22;7476;49.404;11.152;2024-01-25T08:24:11;6.80;1.00
14769;DHT22;7476;49.404;11.152;2024-01-25T08:26:38;6.90;1.00
14769;DHT22;7476;49.404;11.152;2024-01-25T08:29:05;6.90;1.00
14769;DHT22;7476;49.404;11.152;2024-01-25T08:31:31;7.00;1.00
14769;DHT22;7476;49.404;11.152;2024-01-25T08:33:58;7.20;1.00
14769;DHT22;7476;49.404;11.152;2024-01-25T08:36:25;7.30;1.00
14769;DHT22;7476;49.404;11.152;2024-01-25T08:38:51;7.30;1.00
14769;DHT22;7476;49.404;11.152;2024-01-25T08:41:19;7.40;1.00
14769;DHT22;7476;49.404;11.152;2024-01-25T08:43:46;7.50;1.00
14769;DHT22;7476;49.404;11.152;2024-01-25T08:46:14;7.50;1.00
14769;DHT22;7476;49.404;11.152;2024-01-25T08:48:41;7.60;1.00
14769;DHT22;7476;49.404;11.152;2024-01-25T08:51:08;7.70;1.00
14769;DHT22;7476;49.404;11.152;2024-01-25T08:53:35;7.80;1.00
14769;DHT22;7476;49.404;11.152;2024-01-25T08:56:02;7.90;1.00
14769;DHT22;7476;49.404;11.152;2024-01-25T08:58:31;8.00;1.00
14769;DHT22;7476;49.404;11.152;2024-01-25T09:00:58;8.20;99.90
14769;DHT22;7476;49.404;11.152;2024-01-25T09:03:24;8.20;99.90
14769;DHT22;7476;49.404;11.152;2024-01-25T09:05:51;8.20;99.90
14769;DHT22;7476;49.404;11.152;2024-01-25T09:08:18;8.30;99.90
14769;DHT22;7476;49.404;11.152;2024-01-25T09:10:45;8.20;99.90
14769;DHT22;7476;49.404;11.152;2024-01-25T09:13:11;8.20;99.90
14769;DHT22;7476;49.404;11.152;2024-01-25T09:15:39;8.20;99.90
14769;DHT22;7476;49.404;11.152;2024-01-25T09:18:06;8.20;84.30
14769;DHT22;7476;49.404;11.152;2024-01-25T09:20:33;8.20;99.90
14769;DHT22;7476;49.404;11.152;2024-01-25T09:23:00;8.20;99.90
14769;DHT22;7476;49.404;11.152;2024-01-25T09:25:26;8.20;99.90
14769;DHT22;7476;49.404;11.152;2024-01-25T09:27:53;8.20;99.90
14769;DHT22;7476;49.404;11.152;2024-01-25T09:30:22;8.20;94.30
14769;DHT22;7476;49.404;11.152;2024-01-25T09:32:50;8.20;99.50
14769;DHT22;7476;49.404;11.152;2024-01-25T09:35:17;8.40;1.00
14769;DHT22;7476;49.404;11.152;2024-01-25T09:37:43;8.50;1.00
14769;DHT22;7476;49.404;11.152;2024-01-25T09:40:10;8.50;1.00
14769;DHT22;7476;49.404;11.152;2024-01-25T09:42:37;8.60;1.00
14769;DHT22;7476;49.404;11.152;2024-01-25T09:45:06;8.60;1.00
14769;DHT22;7476;49.404;11.152;2024-01-25T09:47:33;8.60;1.00
14769;DHT22;7476;49.404;11.152;2024-01-25T09:50:01;8.60;1.00
14769;DHT22;7476;49.404;11.152;2024-01-25T09:52:29;8.60;99.90
14769;DHT22;7476;49.404;11.152;2024-01-25T09:54:58;8.50;1.00
14769;DHT22;7476;49.404;11.152;2024-01-25T09:57:28;8.60;1.00
14769;DHT22;7476;49.404;11.152;2024-01-25T09:59:55;8.60;99.90
14769;DHT22;7476;49.404;11.152;2024-01-25T10:02:22;8.70;1.00
14769;DHT22;7476;49.404;11.152;2024-01-25T10:04:49;8.70;99.90
14769;DHT22;7476;49.404;11.152;2024-01-25T10:07:35;8.80;1.00
14769;DHT22;7476;49.404;11.152;2024-01-25T10:10:02;8.80;99.90
14769;DHT22;7476;49.404;11.152;2024-01-25T10:12:31;9.00;99.90
14769;DHT22;7476;49.404;11.152;2024-01-25T10:14:57;9.00;1.00
14769;DHT22;7476;49.404;11.152;2024-01-25T10:17:25;8.90;99.90
14769;DHT22;7476;49.404;11.152;2024-01-25T10:19:51;8.80;34.50
14769;DHT22;7476;49.404;11.152;2024-01-25T10:22:20;8.80;99.90
14769;DHT22;7476;49.404;11.152;2024-01-25T10:24:46;8.90;1.00
14769;DHT22;7476;49.404;11.152;2024-01-25T10:27:15;9.00;1.00
14769;DHT22;7476;49.404;11.152;2024-01-25T10:29:42;9.10;99.90
14769;DHT22;7476;49.404;11.152;2024-01-25T10:32:09;9.10;1.00
14769;DHT22;7476;49.404;11.152;2024-01-25T10:34:36;8.90;1.00
14769;DHT22;7476;49.404;11.152;2024-01-25T10:37:04;8.80;1.00
14769;DHT22;7476;49.404;11.152;2024-01-25T10:39:33;8.70;99.90
14769;DHT22;7476;49.404;11.152;2024-01-25T10:42:00;8.70;1.00
14769;DHT22;7476;49.404;11.152;2024-01-25T10:44:27;8.70;1.00
14769;DHT22;7476;49.404;11.152;2024-01-25T10:46:54;8.70;99.90
14769;DHT22;7476;49.404;11.152;2024-01-25T10:49:21;8.90;5.70
14769;DHT22;7476;49.404;11.152;2024-01-25T10:51:49;8.90;99.90
14769;DHT22;7476;49.404;11.152;2024-01-25T10:54:16;9.00;1.00
14769;DHT22;7476;49.404;11.152;2024-01-25T10:56:46;9.10;1.00
14769;DHT22;7476;49.404;11.152;2024-01-25T10:59:15;9.20;1.00
14769;DHT22;7476;49.404;11.152;2024-01-25T11:01:43;9.20;1.00
14769;DHT22;7476;49.404;11.152;2024-01-25T11:04:15;9.50;1.00
14769;DHT22;7476;49.404;11.152;2024-01-25T11:06:43;9.50;99.90
14769;DHT22;7476;49.404;11.152;2024-01-25T11:09:16;9.70;99.90
14769;DHT22;7476;49.404;11.152;2024-01-25T11:11:46;10.00;99.90
14769;DHT22;7476;49.404;11.152;2024-01-25T11:14:14;10.10;99.90
14769;DHT22;7476;49.404;11.152;2024-01-25T11:16:42;10.00;99.90
14769;DHT22;7476;49.404;11.152;2024-01-25T11:19:16;10.10;99.90
14769;DHT22;7476;49.404;11.152;2024-01-25T11:21:44;10.00;99.90
14769;DHT22;7476;49.404;11.152;2024-01-25T11:24:12;9.80;99.90
14769;DHT22;7476;49.404;11.152;2024-01-25T11:26:40;9.70;99.90
14769;DHT22;7476;49.404;11.152;2024-01-25T11:29:08;9.60;99.90
14769;DHT22;7476;49.404;11.152;2024-01-25T11:31:34;9.50;1.00
14769;DHT22;7476;49.404;11.152;2024-01-25T11:34:01;9.50;99.90
14769;DHT22;7476;49.404;11.152;2024-01-25T11:36:28;9.40;99.90
14769;DHT22;7476;49.404;11.152;2024-01-25T11:38:55;9.50;99.90
14769;DHT22;7476;49.404;11.152;2024-01-25T11:41:22;9.60;99.90
14769;DHT22;7476;49.404;11.152;2024-01-25T11:43:50;9.60;99.90
14769;DHT22;7476;49.404;11.152;2024-01-25T11:46:18;9.50;99.90
14769;DHT22;7476;49.404;11.152;2024-01-25T11:48:45;9.60;99.90
14769;DHT22;7476;49.404;11.152;2024-01-25T11:51:12;9.60;99.90
14769;DHT22;7476;49.404;11.152;2024-01-25T11:53:39;9.40;99.90
14769;DHT22;7476;49.404;11.152;2024-01-25T11:56:07;9.60;99.90
14769;DHT22;7476;49.404;11.152;2024-01-25T11:58:36;9.70;99.90
14769;DHT22;7476;49.404;11.152;2024-01-25T12:01:03;9.80;99.90
14769;DHT22;7476;49.404;11.152;2024-01-25T12:03:35;9.70;99.90
14769;DHT22;7476;49.404;11.152;2024-01-25T12:06:03;9.80;99.90
14769;DHT22;7476;49.404;11.152;2024-01-25T12:08:31;9.80;99.90
14769;DHT22;7476;49.404;11.152;2024-01-25T12:11:03;9.70;99.90
14769;DHT22;7476;49.404;11.152;2024-01-25T12:13:32;9.50;99.90
14769;DHT22;7476;49.404;11.152;2024-01-25T12:15:59;9.40;99.90
14769;DHT22;7476;49.404;11.152;2024-01-25T12:18:26;9.40;99.90
14769;DHT22;7476;49.404;11.152;2024-01-25T12:20:54;9.50;99.90
14769;DHT22;7476;49.404;11.152;2024-01-25T12:23:21;9.50;99.90
14769;DHT22;7476;49.404;11.152;2024-01-25T12:25:48;9.50;99.90
14769;DHT22;7476;49.404;11.152;2024-01-25T12:28:14;9.50;99.90
14769;DHT22;7476;49.404;11.152;2024-01-25T12:30:41;9.50;99.90
14769;DHT22;7476;49.404;11.152;2024-01-25T12:33:08;9.50;99.90
14769;DHT22;7476;49.404;11.152;2024-01-25T12:35:36;9.40;99.90
14769;DHT22;7476;49.404;11.152;2024-01-25T12:38:04;9.20;99.90
14769;DHT22;7476;49.404;11.152;2024-01-25T12:40:31;9.30;99.90
14769;DHT22;7476;49.404;11.152;2024-01-25T12:42:57;9.30;99.90
14769;DHT22;7476;49.404;11.152;2024-01-25T12:45:24;9.30;99.90
14769;DHT22;7476;49.404;11.152;2024-01-25T12:47:51;9.40;99.90
14769;DHT22;7476;49.404;11.152;2024-01-25T12:50:17;9.40;99.90
14769;DHT22;7476;49.404;11.152;2024-01-25T12:52:45;9.40;99.90
14769;DHT22;7476;49.404;11.152;2024-01-25T12:55:14;9.40;99.90
14769;DHT22;7476;49.404;11.152;2024-01-25T12:57:40;9.40;99.90
14769;DHT22;7476;49.404;11.152;2024-01-25T13:00:07;9.30;99.90
14769;DHT22;7476;49.404;11.152;2024-01-25T13:02:34;9.30;99.90
14769;DHT22;7476;49.404;11.152;2024-01-25T13:05:01;9.60;99.90
14769;DHT22;7476;49.404;11.152;2024-01-25T13:07:27;9.60;99.90
14769;DHT22;7476;49.404;11.152;2024-01-25T13:09:54;9.40;99.90
14769;DHT22;7476;49.404;11.152;2024-01-25T13:12:22;9.40;99.90
14769;DHT22;7476;49.404;11.152;2024-01-25T13:14:48;9.40;99.90
14769;DHT22;7476;49.404;11.152;2024-01-25T13:17:15;9.40;99.90
14769;DHT22;7476;49.404;11.152;2024-01-25T13:19:42;9.50;99.90
14769;DHT22;7476;49.404;11.152;2024-01-25T13:22:08;9.50;99.90
14769;DHT22;7476;49.404;11.152;2024-01-25T13:24:35;9.50;99.90
14769;DHT22;7476;49.404;11.152;2024-01-25T13:27:02;9.70;99.90
14769;DHT22;7476;49.404;11.152;2024-01-25T13:29:30;9.70;99.90
14769;DHT22;7476;49.404;11.152;2024-01-25T13:31:57;9.70;99.90
14769;DHT22;7476;49.404;11.152;2024-01-25T13:34:23;9.50;99.90
14769;DHT22;7476;49.404;11.152;2024-01-25T13:36:50;9.30;99.90
14769;DHT22;7476;49.404;11.152;2024-01-25T13:39:17;9.20;99.90
14769;DHT22;7476;49.404;11.152;2024-01-25T13:41:43;9.20;99.90
14769;DHT22;7476;49.404;11.152;2024-01-25T13:44:13;9.30;99.90
14769;DHT22;7476;49.404;11.152;2024-01-25T13:46:41;9.40;99.90
14769;DHT22;7476;49.404;11.152;2024-01-25T13:49:07;9.50;99.90
14769;DHT22;7476;49.404;11.152;2024-01-25T13:51:34;9.60;99.90
14769;DHT22;7476;49.404;11.152;2024-01-25T13:54:01;9.60;99.90
14769;DHT22;7476;49.404;11.152;2024-01-25T13:56:28;9.50;99.90
14769;DHT22;7476;49.404;11.152;2024-01-25T13:58:54;9.40;99.90
14769;DHT22;7476;49.404;11.152;2024-01-25T14:01:21;9.40;99.90
14769;DHT22;7476;49.404;11.152;2024-01-25T14:03:49;9.30;99.90
14769;DHT22;7476;49.404;11.152;2024-01-25T14:06:16;9.30;99.90
14769;DHT22;7476;49.404;11.152;2024-01-25T14:08:42;9.20;99.90
14769;DHT22;7476;49.404;11.152;2024-01-25T14:11:09;9.20;99.90
14769;DHT22;7476;49.404;11.152;2024-01-25T14:13:36;9.20;99.90
14769;DHT22;7476;49.404;11.152;2024-01-25T14:16:03;9.20;99.90
14769;DHT22;7476;49.404;11.152;2024-01-25T14:18:36;9.20;99.90
14769;DHT22;7476;49.404;11.152;2024-01-25T14:21:04;9.30;99.90
14769;DHT22;7476;49.404;11.152;2024-01-25T14:23:32;9.20;99.90
14769;DHT22;7476;49.404;11.152;2024-01-25T14:25:58;9.10;99.90
14769;DHT22;7476;49.404;11.152;2024-01-25T14:28:25;9.00;99.90
14769;DHT22;7476;49.404;11.152;2024-01-25T14:30:51;8.90;99.90
14769;DHT22;7476;49.404;11.152;2024-01-25T14:33:18;8.80;99.90
14769;DHT22;7476;49.404;11.152;2024-01-25T14:35:45;8.80;99.90
14769;DHT22;7476;49.404;11.152;2024-01-25T14:38:13;8.70;99.90
14769;DHT22;7476;49.404;11.152;2024-01-25T14:40:39;8.60;99.90
14769;DHT22;7476;49.404;11.152;2024-01-25T14:43:06;8.50;99.90
14769;DHT22;7476;49.404;11.152;2024-01-25T14:45:33;8.50;99.90
14769;DHT22;7476;49.404;11.152;2024-01-25T14:48:01;8.50;1.00
14769;DHT22;7476;49.404;11.152;2024-01-25T14:50:28;8.40;1.00
14769;DHT22;7476;49.404;11.152;2024-01-25T14:52:55;8.40;1.00
14769;DHT22;7476;49.404;11.152;2024-01-25T14:55:23;8.50;1.00
14769;DHT22;7476;49.404;11.152;2024-01-25T14:57:49;8.40;1.00
14769;DHT22;7476;49.404;11.152;2024-01-25T15:00:17;8.40;1.00
14769;DHT22;7476;49.404;11.152;2024-01-25T15:02:45;8.30;1.00
14769;DHT22;7476;49.404;11.152;2024-01-25T15:05:12;8.20;1.00
14769;DHT22;7476;49.404;11.152;2024-01-25T15:07:39;8.10;1.00
14769;DHT22;7476;49.404;11.152;2024-01-25T15:10:06;8.00;1.00
14769;DHT22;7476;49.404;11.152;2024-01-25T15:12:34;8.00;1.00
14769;DHT22;7476;49.404;11.152;2024-01-25T15:15:01;7.90;1.00
14769;DHT22;7476;49.404;11.152;2024-01-25T15:17:27;7.90;1.00
14769;DHT22;7476;49.404;11.152;2024-01-25T15:19:54;7.80;1.00
14769;DHT22;7476;49.404;11.152;2024-01-25T15:22:21;7.80;1.00
14769;DHT22;7476;49.404;11.152;2024-01-25T15:24:51;7.70;1.00
14769;DHT22;7476;49.404;11.152;2024-01-25T15:27:18;7.60;1.00
14769;DHT22;7476;49.404;11.152;2024-01-25T15:29:46;7.50;1.00
14769;DHT22;7476;49.404;11.152;2024-01-25T15:32:12;7.50;1.00
14769;DHT22;7476;49.404;11.152;2024-01-25T15:34:39;7.40;1.00
14769;DHT22;7476;49.404;11.152;2024-01-25T15:37:06;7.40;1.00
14769;DHT22;7476;49.404;11.152;2024-01-25T15:39:32;7.30;1.00
14769;DHT22;7476;49.404;11.152;2024-01-25T15:41:59;7.20;54.20
14769;DHT22;7476;49.404;11.152;2024-01-25T15:44:26;7.20;99.90
14769;DHT22;7476;49.404;11.152;2024-01-25T15:46:54;7.10;99.90
14769;DHT22;7476;49.404;11.152;2024-01-25T15:49:20;7.10;99.90
14769;DHT22;7476;49.404;11.152;2024-01-25T15:51:48;7.00;99.90
14769;DHT22;7476;49.404;11.152;2024-01-25T15:54:15;7.00;99.90